Portada
METAR-TAF:

METAR-TAF

Aeroports :

Retalhuleu, Guatemala

latitud: 14-32N, longitud: 091-40W, altitud: 239 m

Observació

L'informe es va fer fa 2 hores i 10 minuts, a les 00:00 UTC
Vent 6 kt del Nord-Est
Temperatura 26°C
Humitat 79%
Pressió 1014 hPa
Visibilitat 10 km o més
Cel ennuvolat a una alçada de 1800 ft
Escasses núvols a una alçada de 2500 ft, Cumulonimbus.
tempesta

METAR: MGRT 170000Z 04006KT 9999 TS BKN018 FEW025CB 26/22 Q1014 A2994 CB/TS/PCPN E VOL. SANTA MARIA Y SANTIAGUITO EN ACTIVIDAD

Hora: 20:10 (02:10 UTC)


TAF: manca

Observacions i pronòstics meteorològics de més de 4000 aeroports (METAR i TAF).

Les estacions disponibles són els punts grocs i vermells al mapa.

Posi el ratolí al punt desitjat per veure el nom de l'estació.

Feu clic per veure les observacions i els pronòstics meteorològics.

Per canviar el mapa: feu clic els botons verds amb una creu de color negre per apropar; al botó verd amb un guió per allunyar la imatge; o en les fletxes verdes per a mapes adjacents.


METAR-TAF: